Thunder radar more information blitzortung!


Radar de pluja more information rain snow radar


Visita la nostra xarxa de llocs de meteo:

Template documentation
and downloads

And another site



No particular awareness of the weather is required.    There are no Weather-warnings

Pagina Historial Weather Underground text

Diari Resum Juny 6, 2017 Unitats:  Imperial    Mètric   Tant
« Previous Dia
SegĂźent Dia »
Diari Setmana Mensual Anual Personalitzada
  Maxima: Minima: Media:
Temperatura: 86.2 °F 62.6 °F 73.2 °F
Punt de rosada: 59.9 °F 51.1 °F 56.7 °F
Humitat: 81 % 33 % 58 %
Wind Speed: 19.9 mph 0 mph 6.3 mph
RĂ fegues de vent: 19.9 mph - -
Vent:- - SSE
Pression baro: 30.1 in 29.8 in -
Precipitacions: 0 in    
Historical Graphs
 
 
Dades de taula per Juny 6, 2017
Temps Temperatura Punt de rosada Pression baro Vent Wind Speed RĂ fegues de vent Humitat Rainfall Rate (Hourly)
00:01 63.5 °F 51.1 °F 29.9 in SW 4.6 mph 4.6 mph 64 % 0 in
00:06 63.5 °F 51.1 °F 29.9 in WSW 4.6 mph 4.6 mph 64 % 0 in
03:05 63.5 °F 54 °F 29.8 in SW 2 mph 3 mph 71 % 0 in
03:15 64.4 °F 54.3 °F 29.8 in SW 2 mph 3 mph 70 % 0 in
03:25 65.5 °F 55 °F 29.8 in SW 1 mph 4 mph 69 % 0 in
03:35 66.2 °F 55.2 °F 29.8 in SW 2 mph 3 mph 68 % 0 in
03:45 66.9 °F 56.5 °F 29.8 in SW 2 mph 3 mph 69 % 0 in
03:55 67.1 °F 56.1 °F 29.8 in SW 3 mph 4 mph 68 % 0 in
04:05 68 °F 56.1 °F 29.8 in WSW 3 mph 4 mph 66 % 0 in
04:15 69.4 °F 57.6 °F 29.9 in SW 3 mph 3 mph 66 % 0 in
04:25 70 °F 57.7 °F 29.9 in SW 2 mph 4 mph 65 % 0 in
04:35 71.8 °F 58.5 °F 29.9 in SSW 2 mph 2 mph 63 % 0 in
04:45 71.4 °F 58.6 °F 29.9 in SW 2 mph 5 mph 64 % 0 in
04:55 71.4 °F 57.7 °F 29.9 in WNW 2 mph 3 mph 62 % 0 in
05:05 72 °F 56.8 °F 29.9 in NNE 3 mph 3 mph 59 % 0 in
05:15 72.7 °F 57.6 °F 29.9 in ENE 2 mph 3 mph 59 % 0 in
05:25 73.4 °F 56.1 °F 29.9 in East 2 mph 4 mph 55 % 0 in
10:33 74.5 °F 56.7 °F 29.9 in East 4.6 mph 4.6 mph 54 % 0 in
10:38 74.3 °F 57 °F 29.9 in NNE 4 mph 4 mph 55 % 0 in
10:43 73.9 °F 56.1 °F 29.9 in East 3.6 mph 3.6 mph 54 % 0 in
10:48 74.5 °F 57.4 °F 29.9 in NE 3.5 mph 3.5 mph 55 % 0 in
10:53 75.4 °F 57 °F 29.9 in ESE 3.5 mph 3.5 mph 53 % 0 in
10:58 75.7 °F 57.4 °F 29.9 in NE 2.3 mph 2.3 mph 53 % 0 in
11:03 75.9 °F 56.5 °F 29.9 in ESE 3.6 mph 3.6 mph 51 % 0 in
11:08 76.5 °F 57.6 °F 29.9 in WSW 2.4 mph 2.4 mph 52 % 0 in
11:13 77.9 °F 57.7 °F 29.9 in SW 2.4 mph 2.4 mph 50 % 0 in
11:18 78.8 °F 58.6 °F 29.9 in WSW 2.9 mph 2.9 mph 50 % 0 in
11:23 79 °F 58.3 °F 29.9 in NNW 3.5 mph 3.5 mph 49 % 0 in
11:28 80.2 °F 59.4 °F 29.9 in SSW 3.8 mph 3.8 mph 49 % 0 in
11:33 80.4 °F 58.8 °F 29.9 in West 3.5 mph 3.5 mph 48 % 0 in
11:38 80.6 °F 58.5 °F 29.9 in WSW 3.5 mph 3.5 mph 47 % 0 in
11:43 80.1 °F 57.9 °F 29.9 in WSW 9.2 mph 9.2 mph 47 % 0 in
11:48 80.6 °F 57.4 °F 29.9 in SW 3.5 mph 3.5 mph 45 % 0 in
11:53 81 °F 57.6 °F 29.9 in West 3.5 mph 3.5 mph 45 % 0 in
11:58 81.3 °F 57.9 °F 29.9 in SW 2.6 mph 2.6 mph 45 % 0 in
12:03 80.8 °F 56.1 °F 29.8 in WSW 6.9 mph 6.9 mph 43 % 0 in
12:08 80.4 °F 55.9 °F 29.8 in WNW 4.6 mph 4.6 mph 43 % 0 in
12:13 81.5 °F 56.8 °F 29.8 in SSW 2.3 mph 2.3 mph 43 % 0 in
12:18 81.7 °F 57 °F 29.8 in WSW 3.5 mph 3.5 mph 43 % 0 in
12:23 82.2 °F 56.8 °F 29.8 in ESE 2.3 mph 2.4 mph 42 % 0 in
12:28 82.2 °F 56.8 °F 29.8 in SW 4.6 mph 4.6 mph 42 % 0 in
12:33 82 °F 56.7 °F 29.8 in WSW 5.4 mph 5.4 mph 42 % 0 in
12:38 82 °F 55.2 °F 29.8 in SSW 6.9 mph 6.9 mph 40 % 0 in
12:43 82.6 °F 56.5 °F 29.8 in SSW 6.4 mph 6.4 mph 41 % 0 in
12:48 83.3 °F 56.5 °F 29.8 in WSW 3.6 mph 3.6 mph 40 % 0 in
12:53 82.8 °F 55.2 °F 29.8 in ESE 2.3 mph 2.3 mph 39 % 0 in
12:54 82.6 °F 55 °F 29.8 in ESE 2.3 mph 2.3 mph 39 % 0 in
12:59 82.6 °F 55.8 °F 29.8 in West 3.8 mph 3.8 mph 40 % 0 in
13:04 83.7 °F 56.8 °F 29.8 in West 5.8 mph 5.8 mph 40 % 0 in
13:09 83.8 °F 56.8 °F 29.8 in SW 4.6 mph 4.6 mph 40 % 0 in
13:10 84.2 °F 56.7 °F 29.8 in WSW 4 mph 4 mph 39 % 0 in
13:15 84.6 °F 56.1 °F 29.8 in NW 4.6 mph 4.6 mph 38 % 0 in
13:20 83.5 °F 55.9 °F 29.8 in NNW 3.5 mph 3.5 mph 39 % 0 in
13:25 83.1 °F 55.6 °F 29.8 in SSE 3.6 mph 3.6 mph 39 % 0 in
13:30 83.1 °F 54.9 °F 29.8 in NNW 2.3 mph 2.4 mph 38 % 0 in
13:35 82.8 °F 54.7 °F 29.8 in NW 3.1 mph 3.1 mph 38 % 0 in
13:40 82.8 °F 54.7 °F 29.8 in WNW 2.6 mph 2.6 mph 38 % 0 in
13:45 82.4 °F 54.1 °F 29.8 in ESE 2.3 mph 2.3 mph 38 % 0 in
13:50 83.7 °F 56.1 °F 29.8 in SW 4.6 mph 4.6 mph 39 % 0 in
13:55 84.6 °F 55.4 °F 29.8 in SW 3.5 mph 3.5 mph 37 % 0 in
14:00 84 °F 54.9 °F 29.8 in WSW 4.6 mph 4.6 mph 37 % 0 in
14:05 84.9 °F 55 °F 29.8 in South 5.8 mph 5.8 mph 36 % 0 in
14:07 85.3 °F 55.2 °F 29.8 in West 5.8 mph 5.8 mph 36 % 0 in
14:12 84.9 °F 54.1 °F 29.8 in North 4.6 mph 4.6 mph 35 % 0 in
14:17 85.6 °F 55.6 °F 29.8 in SW 8.1 mph 8.1 mph 36 % 0 in
14:22 84.9 °F 52.5 °F 29.9 in ESE 6.9 mph 6.9 mph 33 % 0 in
14:27 86.2 °F 54.5 °F 29.9 in West 5.8 mph 5.8 mph 34 % 0 in
14:32 86.2 °F 53.8 °F 29.9 in WSW 4.6 mph 4.6 mph 33 % 0 in
14:37 84.9 °F 52.5 °F 29.8 in SW 5.8 mph 5.8 mph 33 % 0 in
14:42 84.7 °F 52.3 °F 29.8 in West 5.8 mph 5.8 mph 33 % 0 in
14:47 84.4 °F 52.2 °F 29.8 in WNW 2.3 mph 2.3 mph 33 % 0 in
14:52 84.2 °F 52 °F 29.9 in SSW 4.6 mph 4.6 mph 33 % 0 in
14:57 83.8 °F 52.5 °F 29.9 in ENE 2.3 mph 2.3 mph 34 % 0 in
15:02 84 °F 52.5 °F 29.9 in SW 2.3 mph 2.3 mph 34 % 0 in
15:07 83.7 °F 51.4 °F 29.9 in NE 3.5 mph 3.5 mph 33 % 0 in
15:12 83.3 °F 52 °F 29.9 in NW 3.5 mph 3.5 mph 34 % 0 in
15:17 83.3 °F 52.9 °F 29.9 in ENE 6.9 mph 6.9 mph 35 % 0 in
15:22 81.7 °F 51.4 °F 29.8 in ESE 19.6 mph 19.6 mph 35 % 0 in
15:27 79.9 °F 52.7 °F 29.8 in NNE 19.9 mph 19.9 mph 39 % 0 in
15:32 77.5 °F 51.3 °F 29.8 in East 8.1 mph 8.1 mph 40 % 0 in
15:37 76.6 °F 51.8 °F 29.8 in ESE 10.5 mph 10.5 mph 42 % 0 in
15:42 76.3 °F 52.9 °F 29.8 in East 12.5 mph 12.5 mph 44 % 0 in
15:47 76.5 °F 53.4 °F 29.8 in ENE 8.1 mph 8.1 mph 45 % 0 in
15:52 76.1 °F 53.8 °F 29.9 in East 13 mph 13 mph 46 % 0 in
15:57 75.6 °F 54 °F 29.9 in ENE 10.4 mph 10.4 mph 47 % 0 in
16:02 75 °F 53.4 °F 29.9 in NNE 8.1 mph 8.1 mph 47 % 0 in
16:07 75.4 °F 54.3 °F 29.9 in NNW 10.4 mph 10.4 mph 48 % 0 in
16:12 75.7 °F 54.7 °F 29.9 in NNE 12.7 mph 12.7 mph 48 % 0 in
16:17 75.9 °F 54.9 °F 29.9 in East 10 mph 10 mph 48 % 0 in
16:22 75.6 °F 55 °F 29.9 in East 13.2 mph 13.2 mph 49 % 0 in
16:27 75.6 °F 55 °F 29.9 in NNE 9.2 mph 9.2 mph 49 % 0 in
16:32 75.2 °F 55.8 °F 29.9 in NE 13.8 mph 13.8 mph 51 % 0 in
16:37 75.4 °F 55.9 °F 29.9 in ENE 12.7 mph 12.7 mph 51 % 0 in
16:42 75.6 °F 56.7 °F 29.9 in ENE 10.9 mph 10.9 mph 52 % 0 in
16:47 75 °F 56.1 °F 29.9 in NNW 10.4 mph 10.4 mph 52 % 0 in
16:52 74.7 °F 56.5 °F 29.9 in East 10.4 mph 10.4 mph 53 % 0 in
16:57 75.2 °F 56.8 °F 29.9 in NNE 9.2 mph 9.2 mph 53 % 0 in
17:02 75 °F 57.2 °F 29.9 in NE 10.4 mph 10.4 mph 54 % 0 in
17:07 74.7 °F 57.9 °F 29.9 in ENE 9.2 mph 9.2 mph 56 % 0 in
17:12 74.3 °F 58.1 °F 29.9 in ESE 10.4 mph 10.4 mph 57 % 0 in
17:17 74.1 °F 58.5 °F 29.9 in ENE 10.4 mph 10.4 mph 58 % 0 in
17:22 74.5 °F 59.2 °F 29.9 in East 10.4 mph 10.4 mph 59 % 0 in
17:27 74.5 °F 59.2 °F 29.9 in ENE 9.2 mph 9.2 mph 59 % 0 in
17:32 74.1 °F 59.4 °F 29.9 in East 9.2 mph 9.2 mph 60 % 0 in
17:37 73.8 °F 59.5 °F 29.9 in North 15 mph 15 mph 61 % 0 in
17:42 73.6 °F 59.7 °F 29.9 in ENE 12.7 mph 12.7 mph 62 % 0 in
17:47 73 °F 59.7 °F 29.9 in ENE 15 mph 15 mph 63 % 0 in
17:52 73.2 °F 59.9 °F 29.9 in ESE 10.4 mph 10.4 mph 63 % 0 in
17:57 73 °F 59.2 °F 29.9 in East 9.2 mph 9.2 mph 62 % 0 in
18:02 72.9 °F 59.2 °F 29.9 in East 15 mph 15 mph 62 % 0 in
18:07 72.3 °F 58.6 °F 29.9 in ENE 9.2 mph 9.2 mph 62 % 0 in
18:12 72.5 °F 58.3 °F 29.9 in ESE 10.4 mph 10.4 mph 61 % 0 in
18:17 72.1 °F 57.9 °F 29.9 in East 10.9 mph 10.9 mph 61 % 0 in
18:22 71.8 °F 57.6 °F 29.9 in East 15 mph 15 mph 61 % 0 in
18:27 72 °F 57.7 °F 29.9 in ESE 7.8 mph 7.8 mph 61 % 0 in
18:32 72 °F 57.7 °F 29.9 in SE 10.4 mph 10.4 mph 61 % 0 in
18:37 71.8 °F 57.6 °F 29.9 in ENE 9.2 mph 9.2 mph 61 % 0 in
18:42 72 °F 57.7 °F 29.9 in ESE 8.1 mph 8.1 mph 61 % 0 in
18:47 71.8 °F 57.6 °F 29.9 in ENE 13 mph 13 mph 61 % 0 in
18:52 71.2 °F 57.6 °F 29.9 in ESE 12.3 mph 12.3 mph 62 % 0 in
18:57 71.1 °F 57.7 °F 29.9 in ESE 10.7 mph 10.7 mph 63 % 0 in
19:02 70.5 °F 57.7 °F 29.9 in SE 13.8 mph 13.8 mph 64 % 0 in
19:07 70.2 °F 57.7 °F 29.9 in ESE 9.8 mph 9.8 mph 65 % 0 in
19:12 70.3 °F 57.9 °F 29.9 in ESE 11.5 mph 11.5 mph 65 % 0 in
19:15 66 °F 57.6 °F 29.9 in SE 2 mph 2 mph 74 % 0 in
19:17 69.8 °F 57.9 °F 29.9 in ESE 12.7 mph 12.7 mph 66 % 0 in
19:20 69.6 °F 57.7 °F 29.9 in East 12.7 mph 12.7 mph 66 % 0 in
19:25 69.4 °F 57.9 °F 29.9 in SE 10.4 mph 10.4 mph 67 % 0 in
19:30 69.4 °F 57.9 °F 29.9 in ESE 12.7 mph 12.7 mph 67 % 0 in
19:35 69.4 °F 57.9 °F 29.9 in NE 8.1 mph 8.1 mph 67 % 0 in
19:40 69.3 °F 57.7 °F 29.9 in ESE 12.7 mph 12.7 mph 67 % 0 in
19:45 69.1 °F 57.7 °F 29.9 in East 5.9 mph 5.9 mph 67 % 0 in
19:50 68.7 °F 57.4 °F 29.9 in ESE 10.4 mph 10.4 mph 67 % 0 in
19:55 68.9 °F 57.9 °F 29.9 in ESE 8.1 mph 8.1 mph 68 % 0 in
20:00 68.9 °F 57.9 °F 29.9 in ESE 8.1 mph 8.1 mph 68 % 0 in
20:05 68.7 °F 57.7 °F 29.9 in ESE 13.8 mph 13.8 mph 68 % 0 in
20:10 68.5 °F 57.6 °F 29.9 in ENE 9.2 mph 9.2 mph 68 % 0 in
20:15 68.4 °F 57.4 °F 29.9 in ESE 12.5 mph 12.5 mph 68 % 0 in
20:20 68.2 °F 57.6 °F 30 in ESE 9.2 mph 9.2 mph 69 % 0 in
20:25 68 °F 57.4 °F 30 in East 6.9 mph 6.9 mph 69 % 0 in
20:30 68 °F 57.4 °F 30 in SE 7.6 mph 7.6 mph 69 % 0 in
20:35 68 °F 57.4 °F 30 in ESE 11.4 mph 11.4 mph 69 % 0 in
20:40 67.8 °F 58.1 °F 30 in ESE 9.2 mph 9.2 mph 71 % 0 in
20:45 67.8 °F 58.1 °F 30 in ESE 3.5 mph 3.5 mph 71 % 0 in
20:50 67.8 °F 57.7 °F 30 in ESE 6.9 mph 6.9 mph 70 % 0 in
20:55 67.6 °F 57.9 °F 30 in SE 5.8 mph 5.8 mph 71 % 0 in
21:00 67.8 °F 58.1 °F 30 in ESE 7.8 mph 7.8 mph 71 % 0 in
21:05 67.5 °F 57.7 °F 30 in ESE 9.2 mph 9.2 mph 71 % 0 in
21:10 67.3 °F 57.9 °F 30 in East 6.9 mph 6.9 mph 72 % 0 in
21:15 67.3 °F 57.9 °F 30 in East 8.1 mph 8.1 mph 72 % 0 in
21:20 67.1 °F 57.7 °F 30 in ESE 8.1 mph 8.1 mph 72 % 0 in
21:25 67.1 °F 57.7 °F 30 in ENE 9.2 mph 9.2 mph 72 % 0 in
21:30 66.9 °F 57.6 °F 30 in ENE 5.8 mph 5.8 mph 72 % 0 in
21:35 66.9 °F 57.9 °F 30 in ESE 5.8 mph 5.8 mph 73 % 0 in
21:40 66.7 °F 57.7 °F 30 in ESE 9.2 mph 9.2 mph 73 % 0 in
21:45 66.7 °F 57.7 °F 30 in East 5.8 mph 5.8 mph 73 % 0 in
21:50 66.7 °F 57.7 °F 30 in SSE 8.1 mph 8.1 mph 73 % 0 in
21:52 66.7 °F 57.7 °F 30 in East 6.9 mph 6.9 mph 73 % 0 in
21:55 63.1 °F 55.8 °F 30.1 in WSW 1 mph 2 mph 77 % 0 in
21:57 66.7 °F 57.7 °F 30 in ESE 4.6 mph 4.6 mph 73 % 0 in
22:02 66.7 °F 58.3 °F 30 in SSE 4.6 mph 4.6 mph 74 % 0 in
22:05 63.1 °F 55.8 °F 30.1 in WSW 1 mph 2 mph 77 % 0 in
22:07 66.7 °F 58.3 °F 30 in ESE 5.8 mph 5.8 mph 74 % 0 in
22:12 66.7 °F 58.3 °F 30 in SSW 4.6 mph 4.6 mph 74 % 0 in
22:15 63.1 °F 56.1 °F 30.1 in Calm   2 mph 78 % 0 in
22:17 66.7 °F 57.7 °F 30 in SSE 8.1 mph 8.1 mph 73 % 0 in
22:22 66.6 °F 57.9 °F 30 in ESE 3.5 mph 3.5 mph 74 % 0 in
22:25 63.1 °F 56.1 °F 30.1 in West 1 mph 1 mph 78 % 0 in
22:27 66.6 °F 57.9 °F 30 in ESE 3.5 mph 3.5 mph 74 % 0 in
22:32 66.6 °F 57.9 °F 30 in ENE 4.6 mph 4.6 mph 74 % 0 in
22:35 63.1 °F 56.5 °F 30.1 in West 1 mph 1 mph 79 % 0 in
22:37 66.4 °F 57.7 °F 30 in ESE 4.6 mph 4.6 mph 74 % 0 in
22:42 66.4 °F 57.7 °F 30 in ESE 5.8 mph 5.8 mph 74 % 0 in
22:45 63.3 °F 56.7 °F 30.1 in Calm   1 mph 79 % 0 in
22:47 66.4 °F 57.7 °F 30 in ESE 8.1 mph 8.1 mph 74 % 0 in
22:52 66.2 °F 57.7 °F 30 in ESE 4 mph 4 mph 74 % 0 in
22:55 63.1 °F 56.5 °F 30.1 in WSW 2 mph 2 mph 79 % 0 in
22:57 66.2 °F 57.7 °F 30 in ESE 5.4 mph 5.4 mph 74 % 0 in
23:02 66.2 °F 57.7 °F 30 in ENE 5.8 mph 5.8 mph 74 % 0 in
23:05 62.8 °F 56.5 °F 30.1 in Calm   2 mph 80 % 0 in
23:07 66.2 °F 57.7 °F 30 in ESE 5.8 mph 5.8 mph 74 % 0 in
23:12 66.2 °F 57.7 °F 30 in SE 4.6 mph 4.6 mph 74 % 0 in
23:15 62.8 °F 56.5 °F 30.1 in Calm   2 mph 80 % 0 in
23:17 66.2 °F 57.7 °F 30 in ESE 5.6 mph 5.6 mph 74 % 0 in
23:22 66.2 °F 57.7 °F 30 in ESE 6.9 mph 6.9 mph 74 % 0 in
23:25 62.8 °F 56.5 °F 30.1 in Calm   1 mph 80 % 0 in
23:27 66 °F 57.9 °F 30 in ENE 4.6 mph 4.6 mph 75 % 0 in
23:32 66 °F 57.9 °F 30 in ESE 5.8 mph 5.8 mph 75 % 0 in
23:35 62.6 °F 56.7 °F 30.1 in Calm     81 % 0 in
23:37 66 °F 57.9 °F 30 in NNE 3.5 mph 3.5 mph 75 % 0 in
23:42 66.2 °F 57.4 °F 30 in SE 2.3 mph 2.3 mph 73 % 0 in
23:45 62.8 °F 56.8 °F 30.1 in Calm     81 % 0 in
23:47 66.2 °F 57.7 °F 30 in ESE 4.6 mph 4.6 mph 74 % 0 in
23:52 66.2 °F 57.4 °F 30.1 in ESE 2.3 mph 2.3 mph 73 % 0 in
23:55 62.6 °F 56.7 °F 30.1 in Calm     81 % 0 in
23:57 66.2 °F 57.4 °F 30.1 in East 3.5 mph 3.5 mph 73 % 0 in
23:58 66.2 °F 57.4 °F 30.1 in South 3.5 mph 3.5 mph 73 % 0 in
Meteo Sesrovires
Elogis d' Weather Underground - 3.5 mb

Guio original per  Jim McMurry - jmcmurry@mwt.net Adaptat per a la plantilla per  Wim van der Kuil - Leuven-Template.eu

Trobareu la nostra informacio del temps tambe a:

Weather Underground

AWEKAS